sensor_id;sensor_type;location;lat;lon;timestamp;pressure;altitude;pressure_sealevel;temperature;humidity
70555;BME280;58104;52.744;15.242;2024-01-16T00:01:33;99210.37;;;15.41;45.69
70555;BME280;58104;52.744;15.242;2024-01-16T00:04:01;99206.45;;;15.45;45.61
70555;BME280;58104;52.744;15.242;2024-01-16T00:06:24;99208.05;;;15.32;46.00
70555;BME280;58104;52.744;15.242;2024-01-16T00:08:50;99214.63;;;15.43;45.14
70555;BME280;58104;52.744;15.242;2024-01-16T00:11:15;99220.64;;;15.34;45.51
70555;BME280;58104;52.744;15.242;2024-01-16T00:13:41;99225.66;;;15.37;45.68
70555;BME280;58104;52.744;15.242;2024-01-16T00:16:06;99235.66;;;15.30;46.44
70555;BME280;58104;52.744;15.242;2024-01-16T00:18:32;99243.13;;;15.29;45.52
70555;BME280;58104;52.744;15.242;2024-01-16T00:20:57;99251.11;;;15.28;46.86
70555;BME280;58104;52.744;15.242;2024-01-16T00:23:22;99255.28;;;15.33;45.90
70555;BME280;58104;52.744;15.242;2024-01-16T00:25:48;99263.11;;;15.32;46.82
70555;BME280;58104;52.744;15.242;2024-01-16T00:28:14;99265.75;;;15.25;46.28
70555;BME280;58104;52.744;15.242;2024-01-16T00:30:39;99263.24;;;15.33;46.31
70555;BME280;58104;52.744;15.242;2024-01-16T00:33:04;99267.97;;;15.32;46.15
70555;BME280;58104;52.744;15.242;2024-01-16T00:35:30;99262.58;;;15.23;45.90
70555;BME280;58104;52.744;15.242;2024-01-16T00:37:55;99257.65;;;15.21;45.82
70555;BME280;58104;52.744;15.242;2024-01-16T00:40:21;99259.55;;;15.22;46.04
70555;BME280;58104;52.744;15.242;2024-01-16T00:42:46;99259.43;;;15.34;46.79
70555;BME280;58104;52.744;15.242;2024-01-16T00:45:12;99261.33;;;15.27;45.85
70555;BME280;58104;52.744;15.242;2024-01-16T00:47:37;99261.63;;;15.26;46.28
70555;BME280;58104;52.744;15.242;2024-01-16T00:50:03;99267.21;;;15.32;44.43
70555;BME280;58104;52.744;15.242;2024-01-16T00:52:29;99267.54;;;15.32;45.62
70555;BME280;58104;52.744;15.242;2024-01-16T00:54:54;99266.05;;;15.26;45.46
70555;BME280;58104;52.744;15.242;2024-01-16T00:57:19;99265.98;;;15.28;45.16
70555;BME280;58104;52.744;15.242;2024-01-16T00:59:45;99269.49;;;15.25;45.84
70555;BME280;58104;52.744;15.242;2024-01-16T01:02:10;99274.97;;;15.20;45.55
70555;BME280;58104;52.744;15.242;2024-01-16T01:04:36;99282.09;;;15.12;45.67
70555;BME280;58104;52.744;15.242;2024-01-16T01:07:01;99293.41;;;15.13;45.55
70555;BME280;58104;52.744;15.242;2024-01-16T01:09:27;99296.73;;;15.08;45.99
70555;BME280;58104;52.744;15.242;2024-01-16T01:11:52;99290.63;;;15.13;45.76
70555;BME280;58104;52.744;15.242;2024-01-16T01:14:18;99283.92;;;15.12;45.61
70555;BME280;58104;52.744;15.242;2024-01-16T01:16:43;99280.68;;;15.05;45.34
70555;BME280;58104;52.744;15.242;2024-01-16T01:19:09;99281.19;;;15.07;45.33
70555;BME280;58104;52.744;15.242;2024-01-16T01:21:35;99280.59;;;15.14;45.32
70555;BME280;58104;52.744;15.242;2024-01-16T01:24:00;99289.33;;;15.07;45.87
70555;BME280;58104;52.744;15.242;2024-01-16T01:26:25;99295.63;;;15.17;45.95
70555;BME280;58104;52.744;15.242;2024-01-16T01:28:51;99296.58;;;15.09;44.72
70555;BME280;58104;52.744;15.242;2024-01-16T01:31:16;99298.39;;;15.13;46.05
70555;BME280;58104;52.744;15.242;2024-01-16T01:33:42;99301.13;;;15.18;45.99
70555;BME280;58104;52.744;15.242;2024-01-16T01:36:07;99300.10;;;15.11;45.38
70555;BME280;58104;52.744;15.242;2024-01-16T01:38:33;99305.22;;;15.13;45.62
70555;BME280;58104;52.744;15.242;2024-01-16T01:40:58;99305.21;;;15.15;45.13
70555;BME280;58104;52.744;15.242;2024-01-16T01:43:25;99301.62;;;15.12;45.81
70555;BME280;58104;52.744;15.242;2024-01-16T01:46:00;99298.58;;;15.13;44.71
70555;BME280;58104;52.744;15.242;2024-01-16T01:48:15;99297.81;;;15.04;45.00
70555;BME280;58104;52.744;15.242;2024-01-16T01:50:40;99304.31;;;15.09;44.26
70555;BME280;58104;52.744;15.242;2024-01-16T01:53:06;99309.08;;;15.05;45.40
70555;BME280;58104;52.744;15.242;2024-01-16T01:55:31;99307.25;;;15.08;45.20
70555;BME280;58104;52.744;15.242;2024-01-16T01:57:56;99309.32;;;15.08;45.51
70555;BME280;58104;52.744;15.242;2024-01-16T02:00:22;99310.27;;;15.09;45.11
70555;BME280;58104;52.744;15.242;2024-01-16T02:02:48;99311.94;;;15.02;45.17
70555;BME280;58104;52.744;15.242;2024-01-16T02:05:13;99320.06;;;15.08;45.02
70555;BME280;58104;52.744;15.242;2024-01-16T02:07:39;99323.47;;;15.08;45.76
70555;BME280;58104;52.744;15.242;2024-01-16T02:10:05;99325.30;;;15.07;45.39
70555;BME280;58104;52.744;15.242;2024-01-16T02:12:29;99326.66;;;15.06;45.38
70555;BME280;58104;52.744;15.242;2024-01-16T02:14:55;99322.81;;;14.98;45.10
70555;BME280;58104;52.744;15.242;2024-01-16T02:17:20;99321.91;;;15.09;45.90
70555;BME280;58104;52.744;15.242;2024-01-16T02:19:46;99326.37;;;15.10;45.38
70555;BME280;58104;52.744;15.242;2024-01-16T02:22:17;99328.19;;;15.00;45.49
70555;BME280;58104;52.744;15.242;2024-01-16T02:24:37;99331.68;;;15.06;45.52
70555;BME280;58104;52.744;15.242;2024-01-16T02:27:03;99340.86;;;15.05;45.26
70555;BME280;58104;52.744;15.242;2024-01-16T02:29:28;99343.44;;;14.98;45.14
70555;BME280;58104;52.744;15.242;2024-01-16T02:31:53;99344.50;;;14.91;44.72
70555;BME280;58104;52.744;15.242;2024-01-16T02:34:19;99353.85;;;14.90;45.58
70555;BME280;58104;52.744;15.242;2024-01-16T02:36:44;99363.03;;;14.92;45.20
70555;BME280;58104;52.744;15.242;2024-01-16T02:39:10;99372.61;;;15.05;45.66
70555;BME280;58104;52.744;15.242;2024-01-16T02:41:36;99376.81;;;14.91;44.02
70555;BME280;58104;52.744;15.242;2024-01-16T02:44:01;99381.90;;;14.87;45.08
70555;BME280;58104;52.744;15.242;2024-01-16T02:46:26;99388.41;;;14.90;45.91
70555;BME280;58104;52.744;15.242;2024-01-16T02:48:51;99389.55;;;14.86;43.96
70555;BME280;58104;52.744;15.242;2024-01-16T02:51:17;99387.22;;;14.71;45.51
70555;BME280;58104;52.744;15.242;2024-01-16T02:53:43;99387.88;;;14.80;44.87
70555;BME280;58104;52.744;15.242;2024-01-16T02:56:08;99394.58;;;14.85;45.06
70555;BME280;58104;52.744;15.242;2024-01-16T02:58:34;99395.89;;;14.76;44.82
70555;BME280;58104;52.744;15.242;2024-01-16T03:00:59;99394.83;;;14.75;45.70
70555;BME280;58104;52.744;15.242;2024-01-16T03:03:25;99397.99;;;14.74;44.74
70555;BME280;58104;52.744;15.242;2024-01-16T03:05:50;99402.11;;;14.70;44.84
70555;BME280;58104;52.744;15.242;2024-01-16T03:08:16;99401.70;;;14.75;44.86
70555;BME280;58104;52.744;15.242;2024-01-16T03:10:41;99408.95;;;14.64;44.60
70555;BME280;58104;52.744;15.242;2024-01-16T03:13:07;99411.37;;;14.62;44.94
70555;BME280;58104;52.744;15.242;2024-01-16T03:15:32;99419.53;;;14.74;45.45
70555;BME280;58104;52.744;15.242;2024-01-16T03:17:58;99423.88;;;14.62;44.52
70555;BME280;58104;52.744;15.242;2024-01-16T03:20:23;99427.99;;;14.57;44.99
70555;BME280;58104;52.744;15.242;2024-01-16T03:22:49;99430.82;;;14.62;45.55
70555;BME280;58104;52.744;15.242;2024-01-16T03:25:16;99429.35;;;14.63;45.11
70555;BME280;58104;52.744;15.242;2024-01-16T03:27:40;99433.76;;;14.60;45.13
70555;BME280;58104;52.744;15.242;2024-01-16T03:30:07;99437.24;;;14.61;43.77
70555;BME280;58104;52.744;15.242;2024-01-16T03:32:31;99441.10;;;14.74;45.33
70555;BME280;58104;52.744;15.242;2024-01-16T03:34:56;99441.47;;;14.69;45.26
70555;BME280;58104;52.744;15.242;2024-01-16T03:37:21;99442.56;;;14.64;45.02
70555;BME280;58104;52.744;15.242;2024-01-16T03:39:47;99449.44;;;14.66;45.82
70555;BME280;58104;52.744;15.242;2024-01-16T03:42:12;99455.51;;;14.73;45.37
70555;BME280;58104;52.744;15.242;2024-01-16T03:44:38;99454.67;;;14.69;45.66
70555;BME280;58104;52.744;15.242;2024-01-16T03:47:03;99459.92;;;14.69;45.24
70555;BME280;58104;52.744;15.242;2024-01-16T03:49:29;99460.52;;;14.54;45.47
70555;BME280;58104;52.744;15.242;2024-01-16T03:51:54;99465.80;;;14.64;45.72
70555;BME280;58104;52.744;15.242;2024-01-16T03:54:19;99466.75;;;14.48;46.30
70555;BME280;58104;52.744;15.242;2024-01-16T03:56:45;99467.27;;;14.55;46.10
70555;BME280;58104;52.744;15.242;2024-01-16T03:59:10;99472.36;;;14.59;45.99
70555;BME280;58104;52.744;15.242;2024-01-16T04:01:36;99477.45;;;14.54;45.45
70555;BME280;58104;52.744;15.242;2024-01-16T04:04:01;99478.12;;;14.49;45.35
70555;BME280;58104;52.744;15.242;2024-01-16T04:06:26;99482.53;;;14.60;45.43
70555;BME280;58104;52.744;15.242;2024-01-16T04:08:52;99483.45;;;14.62;44.95
70555;BME280;58104;52.744;15.242;2024-01-16T04:11:17;99485.43;;;14.60;45.26
70555;BME280;58104;52.744;15.242;2024-01-16T04:13:43;99486.77;;;14.51;45.89
70555;BME280;58104;52.744;15.242;2024-01-16T04:16:08;99488.30;;;14.46;45.49
70555;BME280;58104;52.744;15.242;2024-01-16T04:18:36;99490.98;;;14.45;45.79
70555;BME280;58104;52.744;15.242;2024-01-16T04:20:59;99498.34;;;14.53;46.56
70555;BME280;58104;52.744;15.242;2024-01-16T04:23:25;99498.74;;;14.51;45.34
70555;BME280;58104;52.744;15.242;2024-01-16T04:25:50;99505.73;;;14.45;45.43
70555;BME280;58104;52.744;15.242;2024-01-16T04:28:15;99513.07;;;14.46;45.54
70555;BME280;58104;52.744;15.242;2024-01-16T04:30:41;99517.32;;;14.47;45.23
70555;BME280;58104;52.744;15.242;2024-01-16T04:33:07;99524.03;;;14.39;45.65
70555;BME280;58104;52.744;15.242;2024-01-16T04:35:32;99526.60;;;14.47;46.11
70555;BME280;58104;52.744;15.242;2024-01-16T04:37:58;99523.28;;;14.47;45.52
70555;BME280;58104;52.744;15.242;2024-01-16T04:40:23;99526.15;;;14.48;46.07
70555;BME280;58104;52.744;15.242;2024-01-16T04:42:49;99529.24;;;14.53;46.23
70555;BME280;58104;52.744;15.242;2024-01-16T04:45:14;99531.32;;;14.53;45.61
70555;BME280;58104;52.744;15.242;2024-01-16T04:47:40;99530.67;;;14.50;45.70
70555;BME280;58104;52.744;15.242;2024-01-16T04:50:06;99533.26;;;14.43;44.90
70555;BME280;58104;52.744;15.242;2024-01-16T04:52:31;99533.70;;;14.51;45.73
70555;BME280;58104;52.744;15.242;2024-01-16T04:54:56;99533.72;;;14.49;44.86
70555;BME280;58104;52.744;15.242;2024-01-16T04:57:22;99532.26;;;14.47;45.23
70555;BME280;58104;52.744;15.242;2024-01-16T04:59:47;99531.77;;;14.45;45.29
70555;BME280;58104;52.744;15.242;2024-01-16T05:02:13;99537.32;;;14.39;44.35
70555;BME280;58104;52.744;15.242;2024-01-16T05:04:38;99545.48;;;14.36;45.04
70555;BME280;58104;52.744;15.242;2024-01-16T05:07:04;99547.87;;;14.32;45.76
70555;BME280;58104;52.744;15.242;2024-01-16T05:09:29;99554.14;;;14.28;44.46
70555;BME280;58104;52.744;15.242;2024-01-16T05:11:55;99555.79;;;14.39;46.06
70555;BME280;58104;52.744;15.242;2024-01-16T05:14:20;99553.24;;;14.32;45.62
70555;BME280;58104;52.744;15.242;2024-01-16T05:16:46;99554.91;;;14.34;45.37
70555;BME280;58104;52.744;15.242;2024-01-16T05:19:11;99559.94;;;14.36;45.35
70555;BME280;58104;52.744;15.242;2024-01-16T05:21:37;99564.66;;;14.33;45.81
70555;BME280;58104;52.744;15.242;2024-01-16T05:24:03;99568.23;;;14.26;45.88
70555;BME280;58104;52.744;15.242;2024-01-16T05:26:28;99569.23;;;14.28;45.22
70555;BME280;58104;52.744;15.242;2024-01-16T05:28:53;99569.01;;;14.30;46.08
70555;BME280;58104;52.744;15.242;2024-01-16T05:31:19;99569.86;;;14.34;45.69
70555;BME280;58104;52.744;15.242;2024-01-16T05:33:44;99571.59;;;14.25;46.79
70555;BME280;58104;52.744;15.242;2024-01-16T05:36:10;99577.75;;;14.43;46.57
70555;BME280;58104;52.744;15.242;2024-01-16T05:38:35;99575.99;;;14.47;45.20
70555;BME280;58104;52.744;15.242;2024-01-16T05:41:01;99574.99;;;14.49;46.22
70555;BME280;58104;52.744;15.242;2024-01-16T05:43:26;99581.49;;;14.41;45.33
70555;BME280;58104;52.744;15.242;2024-01-16T05:45:52;99578.89;;;14.45;45.99
70555;BME280;58104;52.744;15.242;2024-01-16T05:48:17;99583.32;;;14.38;45.18
70555;BME280;58104;52.744;15.242;2024-01-16T05:50:43;99586.50;;;14.40;46.34
70555;BME280;58104;52.744;15.242;2024-01-16T05:53:08;99589.06;;;14.37;46.12
70555;BME280;58104;52.744;15.242;2024-01-16T05:55:34;99592.54;;;14.37;45.01
70555;BME280;58104;52.744;15.242;2024-01-16T05:57:59;99602.40;;;14.24;45.64
70555;BME280;58104;52.744;15.242;2024-01-16T06:00:25;99610.36;;;14.30;45.93
70555;BME280;58104;52.744;15.242;2024-01-16T06:02:50;99617.64;;;14.24;46.47
70555;BME280;58104;52.744;15.242;2024-01-16T06:05:16;99614.84;;;14.14;46.74
70555;BME280;58104;52.744;15.242;2024-01-16T06:07:41;99616.03;;;14.23;45.53
70555;BME280;58104;52.744;15.242;2024-01-16T06:10:08;99622.59;;;14.20;47.58
70555;BME280;58104;52.744;15.242;2024-01-16T06:12:34;99627.03;;;14.22;49.38
70555;BME280;58104;52.744;15.242;2024-01-16T06:14:58;99633.49;;;14.19;48.71
70555;BME280;58104;52.744;15.242;2024-01-16T06:17:23;99634.08;;;14.23;48.95
70555;BME280;58104;52.744;15.242;2024-01-16T06:19:49;99634.40;;;14.27;48.78
70555;BME280;58104;52.744;15.242;2024-01-16T06:22:14;99634.04;;;14.35;48.04
70555;BME280;58104;52.744;15.242;2024-01-16T06:24:40;99639.96;;;14.22;48.11
70555;BME280;58104;52.744;15.242;2024-01-16T06:27:06;99645.40;;;14.23;48.49
70555;BME280;58104;52.744;15.242;2024-01-16T06:29:31;99650.81;;;13.92;45.12
70555;BME280;58104;52.744;15.242;2024-01-16T06:31:56;99654.17;;;12.68;45.96
70555;BME280;58104;52.744;15.242;2024-01-16T06:34:22;99653.86;;;11.86;46.44
70555;BME280;58104;52.744;15.242;2024-01-16T06:36:47;99658.17;;;11.42;47.64
70555;BME280;58104;52.744;15.242;2024-01-16T06:39:12;99667.25;;;11.03;48.13
70555;BME280;58104;52.744;15.242;2024-01-16T06:41:38;99673.87;;;10.74;48.26
70555;BME280;58104;52.744;15.242;2024-01-16T06:44:04;99676.95;;;10.69;48.73
70555;BME280;58104;52.744;15.242;2024-01-16T06:46:29;99685.34;;;10.51;49.38
70555;BME280;58104;52.744;15.242;2024-01-16T06:48:55;99685.07;;;10.45;51.68
70555;BME280;58104;52.744;15.242;2024-01-16T06:51:21;99688.68;;;10.44;50.71
70555;BME280;58104;52.744;15.242;2024-01-16T06:53:46;99698.58;;;10.52;50.98
70555;BME280;58104;52.744;15.242;2024-01-16T06:56:12;99699.84;;;10.46;49.82
70555;BME280;58104;52.744;15.242;2024-01-16T06:58:37;99703.99;;;10.44;50.08
70555;BME280;58104;52.744;15.242;2024-01-16T07:01:04;99711.52;;;10.42;49.09
70555;BME280;58104;52.744;15.242;2024-01-16T07:03:29;99714.08;;;10.35;49.81
70555;BME280;58104;52.744;15.242;2024-01-16T07:05:54;99712.50;;;10.38;50.81
70555;BME280;58104;52.744;15.242;2024-01-16T07:08:20;99708.56;;;10.61;51.97
70555;BME280;58104;52.744;15.242;2024-01-16T07:10:45;99717.28;;;10.63;51.20
70555;BME280;58104;52.744;15.242;2024-01-16T07:13:11;99720.55;;;10.82;52.72
70555;BME280;58104;52.744;15.242;2024-01-16T07:15:37;99724.07;;;10.83;50.14
70555;BME280;58104;52.744;15.242;2024-01-16T07:18:02;99727.81;;;10.92;50.48
70555;BME280;58104;52.744;15.242;2024-01-16T07:20:28;99732.75;;;10.87;50.16
70555;BME280;58104;52.744;15.242;2024-01-16T07:22:53;99731.01;;;10.84;50.06
70555;BME280;58104;52.744;15.242;2024-01-16T07:25:18;99730.32;;;10.75;48.35
70555;BME280;58104;52.744;15.242;2024-01-16T07:27:43;99730.83;;;10.82;48.11
70555;BME280;58104;52.744;15.242;2024-01-16T07:30:10;99730.72;;;10.86;47.62
70555;BME280;58104;52.744;15.242;2024-01-16T07:32:35;99735.17;;;10.80;47.26
70555;BME280;58104;52.744;15.242;2024-01-16T07:35:00;99735.74;;;10.74;47.75
70555;BME280;58104;52.744;15.242;2024-01-16T07:37:26;99741.62;;;10.70;47.11
70555;BME280;58104;52.744;15.242;2024-01-16T07:39:51;99747.24;;;10.69;47.31
70555;BME280;58104;52.744;15.242;2024-01-16T07:42:16;99754.28;;;10.57;46.72
70555;BME280;58104;52.744;15.242;2024-01-16T07:44:43;99759.31;;;10.56;47.54
70555;BME280;58104;52.744;15.242;2024-01-16T07:47:08;99762.58;;;10.48;46.70
70555;BME280;58104;52.744;15.242;2024-01-16T07:49:34;99764.08;;;10.53;46.80
70555;BME280;58104;52.744;15.242;2024-01-16T07:51:59;99768.32;;;10.54;48.64
70555;BME280;58104;52.744;15.242;2024-01-16T07:54:24;99774.08;;;10.68;47.49
70555;BME280;58104;52.744;15.242;2024-01-16T07:56:49;99778.99;;;12.02;50.85
70555;BME280;58104;52.744;15.242;2024-01-16T07:59:15;99780.72;;;12.93;48.71
70555;BME280;58104;52.744;15.242;2024-01-16T08:01:41;99787.90;;;13.43;46.73
70555;BME280;58104;52.744;15.242;2024-01-16T08:04:06;99795.94;;;13.86;45.82
70555;BME280;58104;52.744;15.242;2024-01-16T08:06:32;99801.06;;;14.13;45.62
70555;BME280;58104;52.744;15.242;2024-01-16T08:08:57;99801.69;;;14.31;45.01
70555;BME280;58104;52.744;15.242;2024-01-16T08:11:23;99804.87;;;14.28;44.69
70555;BME280;58104;52.744;15.242;2024-01-16T08:13:48;99812.81;;;14.37;43.90
70555;BME280;58104;52.744;15.242;2024-01-16T08:16:13;99812.12;;;14.28;44.08
70555;BME280;58104;52.744;15.242;2024-01-16T08:18:39;99813.10;;;14.36;46.21
70555;BME280;58104;52.744;15.242;2024-01-16T08:21:04;99812.76;;;14.46;45.28
70555;BME280;58104;52.744;15.242;2024-01-16T08:23:30;99809.47;;;14.51;46.18
70555;BME280;58104;52.744;15.242;2024-01-16T08:25:55;99809.38;;;14.05;41.17
70555;BME280;58104;52.744;15.242;2024-01-16T08:28:20;99806.20;;;13.10;43.79
70555;BME280;58104;52.744;15.242;2024-01-16T08:30:46;99806.51;;;12.34;45.08
70555;BME280;58104;52.744;15.242;2024-01-16T08:33:12;99807.58;;;11.92;45.35
70555;BME280;58104;52.744;15.242;2024-01-16T08:35:37;99809.68;;;11.58;46.54
70555;BME280;58104;52.744;15.242;2024-01-16T08:38:03;99814.19;;;11.51;47.07
70555;BME280;58104;52.744;15.242;2024-01-16T08:40:28;99815.96;;;11.37;49.81
70555;BME280;58104;52.744;15.242;2024-01-16T08:42:53;99816.76;;;11.40;51.04
70555;BME280;58104;52.744;15.242;2024-01-16T08:45:18;99821.18;;;11.42;52.72
70555;BME280;58104;52.744;15.242;2024-01-16T08:47:44;99828.13;;;11.26;52.13
70555;BME280;58104;52.744;15.242;2024-01-16T08:50:09;99833.03;;;11.25;51.73
70555;BME280;58104;52.744;15.242;2024-01-16T08:52:35;99841.81;;;11.40;50.78
70555;BME280;58104;52.744;15.242;2024-01-16T08:55:00;99853.42;;;11.20;48.93
70555;BME280;58104;52.744;15.242;2024-01-16T08:57:26;99858.32;;;11.41;49.97
70555;BME280;58104;52.744;15.242;2024-01-16T08:59:52;99859.82;;;11.49;46.47
70555;BME280;58104;52.744;15.242;2024-01-16T09:02:17;99864.10;;;11.40;48.58
70555;BME280;58104;52.744;15.242;2024-01-16T09:04:42;99859.77;;;11.47;48.23
70555;BME280;58104;52.744;15.242;2024-01-16T09:07:08;99864.62;;;11.36;49.87
70555;BME280;58104;52.744;15.242;2024-01-16T09:09:33;99866.51;;;11.35;50.24
70555;BME280;58104;52.744;15.242;2024-01-16T09:11:58;99867.84;;;11.41;49.37
70555;BME280;58104;52.744;15.242;2024-01-16T09:14:23;99869.95;;;11.62;48.24
70555;BME280;58104;52.744;15.242;2024-01-16T09:16:49;99864.38;;;11.58;47.70
70555;BME280;58104;52.744;15.242;2024-01-16T09:19:14;99860.41;;;11.45;46.37
70555;BME280;58104;52.744;15.242;2024-01-16T09:21:40;99856.55;;;11.41;47.60
70555;BME280;58104;52.744;15.242;2024-01-16T09:24:05;99857.14;;;11.41;46.61
70555;BME280;58104;52.744;15.242;2024-01-16T09:26:30;99853.73;;;11.35;46.08
70555;BME280;58104;52.744;15.242;2024-01-16T09:28:56;99848.71;;;11.36;45.30
70555;BME280;58104;52.744;15.242;2024-01-16T09:31:27;99851.83;;;11.42;45.30
70555;BME280;58104;52.744;15.242;2024-01-16T09:33:46;99844.31;;;11.44;45.19
70555;BME280;58104;52.744;15.242;2024-01-16T09:36:11;99840.11;;;11.46;45.06
70555;BME280;58104;52.744;15.242;2024-01-16T09:38:37;99841.88;;;11.47;46.00
70555;BME280;58104;52.744;15.242;2024-01-16T09:41:03;99844.56;;;11.57;44.68
70555;BME280;58104;52.744;15.242;2024-01-16T09:43:28;99850.06;;;11.66;44.58
70555;BME280;58104;52.744;15.242;2024-01-16T09:45:54;99845.00;;;11.99;43.54
70555;BME280;58104;52.744;15.242;2024-01-16T09:48:18;99841.09;;;12.65;41.73
70555;BME280;58104;52.744;15.242;2024-01-16T09:50:43;99841.30;;;13.03;40.99
70555;BME280;58104;52.744;15.242;2024-01-16T09:53:09;99844.62;;;13.10;40.72
70555;BME280;58104;52.744;15.242;2024-01-16T09:55:34;99852.89;;;12.87;40.85
70555;BME280;58104;52.744;15.242;2024-01-16T09:58:00;99856.59;;;12.50;40.80
70555;BME280;58104;52.744;15.242;2024-01-16T10:00:26;99855.27;;;12.31;41.77
70555;BME280;58104;52.744;15.242;2024-01-16T10:02:51;99857.35;;;12.08;41.08
70555;BME280;58104;52.744;15.242;2024-01-16T10:05:17;99858.80;;;12.07;41.56
70555;BME280;58104;52.744;15.242;2024-01-16T10:07:43;99859.16;;;12.03;42.53
70555;BME280;58104;52.744;15.242;2024-01-16T10:10:08;99862.60;;;11.95;41.66
70555;BME280;58104;52.744;15.242;2024-01-16T10:12:33;99860.87;;;11.86;41.42
70555;BME280;58104;52.744;15.242;2024-01-16T10:14:59;99867.50;;;11.78;41.46
70555;BME280;58104;52.744;15.242;2024-01-16T10:17:36;99870.15;;;11.65;41.88
70555;BME280;58104;52.744;15.242;2024-01-16T10:19:51;99872.01;;;11.56;42.88
70555;BME280;58104;52.744;15.242;2024-01-16T10:22:20;99872.74;;;11.67;42.65
70555;BME280;58104;52.744;15.242;2024-01-16T10:24:41;99870.71;;;11.51;42.30
70555;BME280;58104;52.744;15.242;2024-01-16T10:27:06;99874.35;;;11.41;43.16
70555;BME280;58104;52.744;15.242;2024-01-16T10:29:32;99876.01;;;11.43;42.79
70555;BME280;58104;52.744;15.242;2024-01-16T10:31:58;99878.33;;;11.36;43.14
70555;BME280;58104;52.744;15.242;2024-01-16T10:34:23;99881.06;;;11.38;42.43
70555;BME280;58104;52.744;15.242;2024-01-16T10:36:50;99883.66;;;11.33;43.09
70555;BME280;58104;52.744;15.242;2024-01-16T10:39:14;99885.99;;;11.41;43.32
70555;BME280;58104;52.744;15.242;2024-01-16T10:41:40;99890.03;;;11.33;43.72
70555;BME280;58104;52.744;15.242;2024-01-16T10:44:06;99887.15;;;11.32;43.59
70555;BME280;58104;52.744;15.242;2024-01-16T10:46:31;99892.70;;;11.34;44.56
70555;BME280;58104;52.744;15.242;2024-01-16T10:49:01;99893.31;;;11.35;43.84
70555;BME280;58104;52.744;15.242;2024-01-16T10:51:21;99893.80;;;11.37;42.93
70555;BME280;58104;52.744;15.242;2024-01-16T10:53:47;99897.79;;;11.33;43.08
70555;BME280;58104;52.744;15.242;2024-01-16T10:56:13;99899.57;;;11.21;43.52
70555;BME280;58104;52.744;15.242;2024-01-16T10:58:41;99895.76;;;11.29;44.26
70555;BME280;58104;52.744;15.242;2024-01-16T11:01:05;99893.32;;;11.29;43.16
70555;BME280;58104;52.744;15.242;2024-01-16T11:03:35;99896.06;;;11.36;43.03
70555;BME280;58104;52.744;15.242;2024-01-16T11:05:57;99894.71;;;11.27;42.87
70555;BME280;58104;52.744;15.242;2024-01-16T11:08:20;99901.09;;;11.22;42.64
70555;BME280;58104;52.744;15.242;2024-01-16T11:10:47;99901.90;;;11.28;42.85
70555;BME280;58104;52.744;15.242;2024-01-16T11:13:13;99906.89;;;11.07;42.88
70555;BME280;58104;52.744;15.242;2024-01-16T11:15:38;99905.41;;;11.14;42.79
70555;BME280;58104;52.744;15.242;2024-01-16T11:18:04;99907.16;;;11.20;42.93
70555;BME280;58104;52.744;15.242;2024-01-16T11:20:29;99910.19;;;11.21;42.51
70555;BME280;58104;52.744;15.242;2024-01-16T11:22:54;99909.31;;;11.34;42.05
70555;BME280;58104;52.744;15.242;2024-01-16T11:25:20;99910.36;;;11.38;41.92
70555;BME280;58104;52.744;15.242;2024-01-16T11:27:47;99912.04;;;11.31;41.62
70555;BME280;58104;52.744;15.242;2024-01-16T11:30:12;99921.88;;;11.14;42.07
70555;BME280;58104;52.744;15.242;2024-01-16T11:32:37;99920.79;;;10.99;41.90
70555;BME280;58104;52.744;15.242;2024-01-16T11:35:03;99919.07;;;11.07;41.85
70555;BME280;58104;52.744;15.242;2024-01-16T11:37:28;99920.76;;;11.14;41.73
70555;BME280;58104;52.744;15.242;2024-01-16T11:42:25;99916.97;;;11.21;41.69
70555;BME280;58104;52.744;15.242;2024-01-16T11:44:45;99918.85;;;11.21;41.96
70555;BME280;58104;52.744;15.242;2024-01-16T11:47:10;99922.07;;;11.17;41.76
70555;BME280;58104;52.744;15.242;2024-01-16T11:49:34;99925.25;;;10.93;41.61
70555;BME280;58104;52.744;15.242;2024-01-16T11:52:00;99927.49;;;11.26;42.84
70555;BME280;58104;52.744;15.242;2024-01-16T11:54:26;99918.92;;;11.34;40.72
70555;BME280;58104;52.744;15.242;2024-01-16T11:59:32;99913.13;;;11.34;41.22
70555;BME280;58104;52.744;15.242;2024-01-16T12:01:45;99914.76;;;11.44;41.09
70555;BME280;58104;52.744;15.242;2024-01-16T12:04:08;99912.82;;;11.22;40.65
70555;BME280;58104;52.744;15.242;2024-01-16T12:06:34;99915.18;;;11.26;41.25
70555;BME280;58104;52.744;15.242;2024-01-16T12:09:11;99911.35;;;11.29;41.31
70555;BME280;58104;52.744;15.242;2024-01-16T12:11:23;99910.16;;;11.52;40.40
70555;BME280;58104;52.744;15.242;2024-01-16T12:16:19;99906.49;;;11.30;40.58
70555;BME280;58104;52.744;15.242;2024-01-16T12:18:39;99901.75;;;11.40;40.45
70555;BME280;58104;52.744;15.242;2024-01-16T12:21:08;99901.00;;;11.24;40.19
70555;BME280;58104;52.744;15.242;2024-01-16T12:23:30;99902.60;;;11.21;40.84
70555;BME280;58104;52.744;15.242;2024-01-16T12:25:55;99903.39;;;11.31;40.59
70555;BME280;58104;52.744;15.242;2024-01-16T12:28:21;99902.46;;;11.44;41.29
70555;BME280;58104;52.744;15.242;2024-01-16T12:30:49;99903.24;;;11.51;40.42
70555;BME280;58104;52.744;15.242;2024-01-16T12:33:13;99904.13;;;11.52;40.00
70555;BME280;58104;52.744;15.242;2024-01-16T12:35:39;99900.30;;;11.62;40.29
70555;BME280;58104;52.744;15.242;2024-01-16T12:38:04;99899.99;;;11.62;39.99
70555;BME280;58104;52.744;15.242;2024-01-16T12:40:29;99897.54;;;11.64;39.73
70555;BME280;58104;52.744;15.242;2024-01-16T12:42:55;99902.73;;;11.63;40.40
70555;BME280;58104;52.744;15.242;2024-01-16T12:45:20;99899.52;;;11.71;39.79
70555;BME280;58104;52.744;15.242;2024-01-16T12:47:50;99900.24;;;11.87;39.34